Time;durP1;ratioP1;P1;durP2;ratioP2;P2;SDS_P1;SDS_P2;PMS_P1;PMS_P2;Temp;Humidity;BMP_temperature;BMP_pressure;BME280_temperature;BME280_humidity;BME280_pressure;Samples;Min_cycle;Max_cycle;Signal;HPM_P1;HPM_P2
2023/04/21 00:00:41;;;;;;;18.00;16.50;;;7.80;99.90;;;;;;10416673;28;20187;-80
2023/04/21 00:05:43;;;;;;;19.20;17.40;;;7.80;99.90;;;;;;10415435;28;20220;-79
2023/04/21 00:10:47;;;;;;;18.20;16.67;;;7.80;99.90;;;;;;10398404;28;20239;-78
2023/04/21 00:15:49;;;;;;;17.70;16.00;;;7.80;99.90;;;;;;10398415;28;20226;-79
2023/04/21 00:20:51;;;;;;;18.40;16.87;;;7.90;99.90;;;;;;10416085;28;20199;-79
2023/04/21 00:25:55;;;;;;;16.17;14.87;;;7.90;99.90;;;;;;10415767;28;20301;-80
2023/04/21 00:30:57;;;;;;;14.83;13.40;;;7.90;99.90;;;;;;10415045;28;20652;-81
2023/04/21 00:35:59;;;;;;;15.10;13.80;;;7.90;99.90;;;;;;10397253;28;20219;-82
2023/04/21 00:41:04;;;;;;;14.97;13.67;;;7.90;99.90;;;;;;10397895;28;20190;-80
2023/04/21 00:46:06;;;;;;;14.07;12.97;;;7.90;99.90;;;;;;10399143;28;20225;-79
2023/04/21 00:51:08;;;;;;;16.47;15.07;;;7.80;99.90;;;;;;10400373;28;20222;-80
2023/04/21 00:56:12;;;;;;;17.63;15.97;;;7.80;99.90;;;;;;10397128;28;20281;-79
2023/04/21 01:01:14;;;;;;;18.90;17.30;;;7.90;99.90;;;;;;10376510;28;20592;-81
2023/04/21 01:06:20;;;;;;;18.57;17.00;;;7.90;99.90;;;;;;10395885;28;20598;-82
2023/04/21 01:11:23;;;;;;;21.30;19.23;;;8.00;99.90;;;;;;10397697;28;20217;-83
2023/04/21 01:16:25;;;;;;;27.40;21.57;;;8.00;99.90;;;;;;10397348;28;20238;-80
2023/04/21 01:21:30;;;;;;;22.23;20.33;;;8.00;99.90;;;;;;10415652;28;20287;-80
2023/04/21 01:26:34;;;;;;;19.03;17.40;;;8.00;99.90;;;;;;10398237;28;20220;-81
2023/04/21 01:31:36;;;;;;;19.50;17.63;;;8.00;99.90;;;;;;10416553;28;20230;-81
2023/04/21 01:36:38;;;;;;;25.57;21.67;;;7.90;99.90;;;;;;10397916;28;20273;-82
2023/04/21 01:41:42;;;;;;;44.00;25.30;;;7.90;99.90;;;;;;10399258;28;20225;-83
2023/04/21 01:46:44;;;;;;;18.97;17.17;;;7.80;99.90;;;;;;10400747;28;20690;-79
2023/04/21 01:51:46;;;;;;;29.63;24.10;;;7.80;99.90;;;;;;10415758;28;20269;-79
2023/04/21 01:56:50;;;;;;;46.73;26.53;;;7.80;99.90;;;;;;10396807;28;20216;-79
2023/04/21 02:01:52;;;;;;;18.80;17.00;;;7.70;99.90;;;;;;10397143;28;20205;-80
2023/04/21 02:06:54;;;;;;;19.23;17.53;;;7.60;99.90;;;;;;10375345;28;20311;-80
2023/04/21 02:11:58;;;;;;;21.40;19.50;;;7.50;99.90;;;;;;10413892;28;20287;-79
2023/04/21 02:17:02;;;;;;;30.13;24.10;;;7.40;99.90;;;;;;10415125;28;20222;-81
2023/04/21 02:22:05;;;;;;;20.07;18.40;;;7.40;99.90;;;;;;10398992;28;20190;-81
2023/04/21 02:27:09;;;;;;;21.83;19.63;;;7.40;99.90;;;;;;10420415;28;20226;-79
2023/04/21 02:32:11;;;;;;;19.80;18.00;;;7.30;99.90;;;;;;10403527;28;20212;-79
2023/04/21 02:37:13;;;;;;;20.30;18.50;;;7.20;99.90;;;;;;10404302;28;20218;-80
2023/04/21 02:42:16;;;;;;;20.20;18.40;;;7.10;99.90;;;;;;10404251;28;20662;-80
2023/04/21 02:47:18;;;;;;;21.60;19.80;;;7.00;99.90;;;;;;10403201;28;20272;-81
2023/04/21 02:52:20;;;;;;;24.50;22.40;;;7.00;99.90;;;;;;10408138;28;20225;-82
2023/04/21 02:57:24;;;;;;;23.90;21.80;;;7.00;99.90;;;;;;10394995;28;20222;-83
2023/04/21 03:02:26;;;;;;;24.10;21.90;;;7.00;99.90;;;;;;10413256;28;20194;-83
2023/04/21 03:07:28;;;;;;;23.70;21.50;;;7.00;99.90;;;;;;10398267;28;20306;-83
2023/04/21 03:12:31;;;;;;;23.50;21.30;;;7.00;99.90;;;;;;10418179;28;20213;-81
2023/04/21 03:17:33;;;;;;;22.53;20.43;;;7.00;99.90;;;;;;10415517;28;20687;-83
2023/04/21 03:22:36;;;;;;;24.13;21.93;;;6.90;99.90;;;;;;10417288;28;20200;-82
2023/04/21 03:27:39;;;;;;;24.37;22.17;;;6.80;99.90;;;;;;10391069;28;20281;-82
2023/04/21 03:32:41;;;;;;;23.57;21.57;;;6.90;99.90;;;;;;10409465;28;20213;-81
2023/04/21 03:37:44;;;;;;;25.27;22.97;;;6.90;99.90;;;;;;10407177;28;20223;-81
2023/04/21 03:42:47;;;;;;;23.33;21.10;;;6.90;99.90;;;;;;10392748;28;20253;-81
2023/04/21 03:47:52;;;;;;;24.17;21.90;;;6.90;99.90;;;;;;10408676;28;20216;-82
2023/04/21 03:52:54;;;;;;;26.97;24.37;;;6.90;99.90;;;;;;10409307;28;20228;-82
2023/04/21 03:57:58;;;;;;;27.33;24.50;;;7.00;99.90;;;;;;10412610;28;20210;-80
2023/04/21 04:03:00;;;;;;;27.80;25.10;;;7.00;99.90;;;;;;10434797;28;20296;-82
2023/04/21 04:08:02;;;;;;;28.83;26.00;;;7.00;99.90;;;;;;10406888;28;20237;-82
2023/04/21 04:13:05;;;;;;;30.70;27.70;;;7.10;99.90;;;;;;10426463;28;20653;-82
2023/04/21 04:18:07;;;;;;;30.43;27.30;;;7.10;99.90;;;;;;10391904;28;20241;-83
2023/04/21 04:23:09;;;;;;;27.80;25.20;;;7.10;99.90;;;;;;10409077;28;20186;-83
2023/04/21 04:28:14;;;;;;;28.93;26.13;;;7.20;99.90;;;;;;10390982;28;20221;-83
2023/04/21 04:33:18;;;;;;;29.90;26.90;;;7.30;99.90;;;;;;10425827;28;20233;-83
2023/04/21 04:38:21;;;;;;;27.97;25.30;;;7.30;99.90;;;;;;10426756;28;20231;-82
2023/04/21 04:43:26;;;;;;;30.10;27.23;;;7.30;99.90;;;;;;10428654;28;20663;-83
2023/04/21 04:48:28;;;;;;;30.63;27.67;;;7.40;99.90;;;;;;10429673;28;20229;-83
2023/04/21 04:53:31;;;;;;;27.70;25.00;;;7.40;99.90;;;;;;10422671;28;20215;-82
2023/04/21 04:58:34;;;;;;;27.97;25.27;;;7.50;99.90;;;;;;10426777;28;20222;-80
2023/04/21 05:03:36;;;;;;;31.57;28.63;;;7.50;99.90;;;;;;10413680;28;20204;-81
2023/04/21 05:08:40;;;;;;;29.30;26.60;;;7.60;99.90;;;;;;10407896;28;20219;-82
2023/04/21 05:13:44;;;;;;;26.77;24.43;;;7.80;99.90;;;;;;10409105;28;20220;-81
2023/04/21 05:18:49;;;;;;;27.63;25.13;;;7.90;99.90;;;;;;10429963;28;20226;-80
2023/04/21 05:23:55;;;;;;;29.40;26.70;;;8.00;99.90;;;;;;10404151;28;20534;-81
2023/04/21 05:28:58;;;;;;;27.00;24.60;;;8.00;99.90;;;;;;10386554;28;20221;-82
2023/04/21 05:34:00;;;;;;;28.73;26.13;;;8.10;99.90;;;;;;10399875;28;20240;-80
2023/04/21 05:39:03;;;;;;;28.20;25.60;;;8.20;99.90;;;;;;10398469;28;20223;-80
2023/04/21 05:44:06;;;;;;;27.57;25.07;;;8.20;99.90;;;;;;10411157;28;20202;-79
2023/04/21 05:49:10;;;;;;;29.20;26.60;;;8.20;99.90;;;;;;10443317;28;20609;-80
2023/04/21 05:54:12;;;;;;;27.93;25.23;;;8.30;99.90;;;;;;10426849;28;20228;-79
2023/04/21 05:59:18;;;;;;;29.90;27.13;;;8.50;99.90;;;;;;10418774;28;20295;-80
2023/04/21 06:04:20;;;;;;;30.50;27.60;;;8.60;99.90;;;;;;10399761;28;20196;-79
2023/04/21 06:09:22;;;;;;;27.50;24.90;;;8.70;99.90;;;;;;10420112;28;20233;-80
2023/04/21 06:14:25;;;;;;;27.60;24.90;;;8.80;99.90;;;;;;10416273;28;20231;-78
2023/04/21 06:19:28;;;;;;;30.50;27.40;;;9.00;99.90;;;;;;10415057;28;20199;-80
2023/04/21 06:24:32;;;;;;;31.53;28.50;;;9.10;99.90;;;;;;10417889;28;20685;-81
2023/04/21 06:29:35;;;;;;;29.83;27.03;;;9.30;99.90;;;;;;10385283;28;20213;-80
2023/04/21 06:34:38;;;;;;;29.53;26.53;;;9.40;99.90;;;;;;10419040;28;20683;-81
2023/04/21 06:39:40;;;;;;;31.73;28.57;;;9.60;99.90;;;;;;10421676;28;20188;-81
2023/04/21 06:44:43;;;;;;;30.70;27.63;;;9.80;99.90;;;;;;10420884;28;20199;-81
2023/04/21 06:49:45;;;;;;;30.93;27.73;;;9.90;99.90;;;;;;10401785;28;20221;-79
2023/04/21 06:54:47;;;;;;;28.80;26.10;;;10.00;99.90;;;;;;10412247;28;20601;-79
2023/04/21 06:59:53;;;;;;;27.77;25.07;;;10.10;99.90;;;;;;10416664;28;20234;-80
2023/04/21 07:04:55;;;;;;;28.77;26.03;;;10.20;99.90;;;;;;10417936;28;20249;-79
2023/04/21 07:09:57;;;;;;;30.60;27.73;;;10.20;99.90;;;;;;10417790;28;20191;-79
2023/04/21 07:15:01;;;;;;;30.63;27.73;;;10.30;99.90;;;;;;10427665;28;20305;-79
2023/04/21 07:20:03;;;;;;;28.97;26.33;;;10.60;99.90;;;;;;10425099;28;20724;-80
2023/04/21 07:25:06;;;;;;;29.73;26.93;;;10.70;99.90;;;;;;10426051;28;20225;-80
2023/04/21 07:30:11;;;;;;;25.73;23.33;;;10.80;99.90;;;;;;10432003;28;20214;-79
2023/04/21 07:35:13;;;;;;;25.87;23.50;;;10.90;99.90;;;;;;10423023;28;20229;-80
2023/04/21 07:40:15;;;;;;;27.83;25.13;;;11.10;99.90;;;;;;10423459;28;20203;-80
2023/04/21 07:45:18;;;;;;;26.73;24.13;;;11.20;99.90;;;;;;10422616;28;20237;-80
2023/04/21 07:50:20;;;;;;;23.50;21.20;;;11.40;99.90;;;;;;10423193;28;20229;-80
2023/04/21 07:55:22;;;;;;;24.93;22.43;;;11.60;99.90;;;;;;10424268;28;20229;-80
2023/04/21 08:00:26;;;;;;;23.27;21.13;;;11.80;99.90;;;;;;10424051;28;20567;-80
2023/04/21 08:05:29;;;;;;;22.07;20.13;;;12.00;99.90;;;;;;10432240;28;20249;-80
2023/04/21 08:10:32;;;;;;;20.60;18.60;;;12.30;99.90;;;;;;10424561;28;20214;-80
2023/04/21 08:15:35;;;;;;;21.17;19.30;;;12.60;99.90;;;;;;10425114;28;20291;-80
2023/04/21 08:20:37;;;;;;;20.57;18.67;;;12.90;99.90;;;;;;10407423;28;20313;-80
2023/04/21 08:25:39;;;;;;;19.73;17.93;;;13.10;99.90;;;;;;10377065;28;20277;-80
2023/04/21 08:30:43;;;;;;;20.93;19.13;;;13.20;99.90;;;;;;10413710;28;20211;-80
2023/04/21 08:35:45;;;;;;;19.53;17.73;;;13.40;99.90;;;;;;10404618;28;20245;-80
2023/04/21 08:40:48;;;;;;;18.13;16.53;;;13.60;99.90;;;;;;10400703;28;20191;-78
2023/04/21 08:45:54;;;;;;;17.67;16.13;;;13.90;99.90;;;;;;10423013;28;20222;-79
2023/04/21 08:50:56;;;;;;;15.87;14.37;;;14.10;99.90;;;;;;10412374;28;20605;-79
2023/04/21 08:55:58;;;;;;;17.27;15.57;;;14.30;99.90;;;;;;10423141;28;20245;-79
2023/04/21 09:01:02;;;;;;;15.73;14.27;;;14.40;99.90;;;;;;10403970;28;20205;-79
2023/04/21 09:06:06;;;;;;;15.50;13.97;;;14.50;99.90;;;;;;10420974;28;20215;-79
2023/04/21 09:11:08;;;;;;;12.40;10.77;;;14.60;99.90;;;;;;10386308;28;20301;-79
2023/04/21 09:16:19;;;;;;;12.37;11.27;;;14.60;99.90;;;;;;10400531;28;20638;-81
2023/04/21 09:21:27;;;;;;;13.23;11.97;;;14.70;99.90;;;;;;10414293;28;20191;-79
2023/04/21 09:26:29;;;;;;;10.83;9.97;;;14.90;99.90;;;;;;10414991;28;20222;-79
2023/04/21 09:31:35;;;;;;;11.20;10.30;;;15.00;99.90;;;;;;10396323;28;20637;-79
2023/04/21 09:36:37;;;;;;;10.07;9.27;;;15.20;99.90;;;;;;10415446;28;20211;-78
2023/04/21 09:41:40;;;;;;;19.83;17.77;;;15.40;99.90;;;;;;10414705;28;20282;-79
2023/04/21 09:46:48;;;;;;;8.60;7.90;;;15.60;99.90;;;;;;10396726;28;20210;-79
2023/04/21 09:51:51;;;;;;;8.80;8.10;;;15.80;99.60;;;;;;10413661;28;20206;-79
2023/04/21 09:56:54;;;;;;;8.80;8.00;;;16.00;99.30;;;;;;10414501;28;20214;-80
2023/04/21 10:02:00;;;;;;;8.80;8.00;;;16.20;99.90;;;;;;10397051;28;20203;-79
2023/04/21 10:07:03;;;;;;;7.70;7.10;;;16.50;99.90;;;;;;10414320;28;20224;-79
2023/04/21 10:12:06;;;;;;;8.50;7.80;;;16.80;99.30;;;;;;10403265;28;20214;-80
2023/04/21 10:17:10;;;;;;;10.23;9.33;;;16.70;98.80;;;;;;10420486;28;20236;-80
2023/04/21 10:22:13;;;;;;;10.73;9.73;;;16.30;98.30;;;;;;10430043;28;20227;-79
2023/04/21 10:27:31;;;;;;;10.70;9.80;;;16.00;97.70;;;;;;10396104;28;20211;-79
2023/04/21 10:32:42;;;;;;;11.43;10.53;;;15.60;98.40;;;;;;10413080;28;20218;-79
2023/04/21 10:37:47;;;;;;;10.80;9.90;;;15.30;99.00;;;;;;10393323;28;20222;-80
2023/04/21 10:42:49;;;;;;;12.23;11.13;;;15.00;99.40;;;;;;10418555;28;20225;-80
2023/04/21 10:47:53;;;;;;;11.53;10.53;;;14.80;99.90;;;;;;10421495;28;20282;-79
2023/04/21 10:53:07;;;;;;;13.53;12.33;;;14.70;99.90;;;;;;10409287;28;20556;-80
2023/04/21 10:58:10;;;;;;;12.87;11.77;;;14.60;99.90;;;;;;10407239;28;20225;-80
2023/04/21 11:03:13;;;;;;;13.77;12.50;;;14.50;99.90;;;;;;10407532;28;20733;-80
2023/04/21 11:08:15;;;;;;;12.30;11.23;;;14.40;99.90;;;;;;10407028;28;20706;-80
2023/04/21 11:13:20;;;;;;;14.77;13.47;;;14.40;99.90;;;;;;10423704;28;20221;-80
2023/04/21 11:18:36;;;;;;;12.23;11.13;;;14.40;99.90;;;;;;10425558;28;20226;-79
2023/04/21 11:23:42;;;;;;;12.83;11.80;;;14.50;99.90;;;;;;10425240;28;20705;-80
2023/04/21 11:28:48;;;;;;;13.03;11.93;;;14.50;99.90;;;;;;10407710;28;20702;-79
2023/04/21 11:33:51;;;;;;;12.00;11.10;;;14.60;99.90;;;;;;10418496;28;20569;-80
2023/04/21 11:38:53;;;;;;;11.60;10.43;;;14.60;99.90;;;;;;10425355;28;20289;-80
2023/04/21 11:43:55;;;;;;;10.90;10.00;;;14.50;99.90;;;;;;10427638;28;20225;-80
2023/04/21 11:49:04;;;;;;;13.07;11.97;;;14.50;99.90;;;;;;10416074;28;20306;-80
2023/04/21 11:54:07;;;;;;;12.97;11.87;;;14.50;99.90;;;;;;10412071;28;20234;-80
2023/04/21 11:59:11;;;;;;;12.13;11.13;;;14.50;99.90;;;;;;10408293;28;20479;-80
2023/04/21 12:04:21;;;;;;;12.47;11.47;;;14.50;99.90;;;;;;10406299;28;20218;-80
2023/04/21 12:09:23;;;;;;;11.00;10.10;;;14.50;99.90;;;;;;10406842;28;20237;-80
2023/04/21 12:14:26;;;;;;;11.57;10.53;;;14.50;99.90;;;;;;10422861;28;20226;-80
2023/04/21 12:19:38;;;;;;;10.33;9.53;;;14.60;99.90;;;;;;10425036;28;20269;-80
2023/04/21 12:24:41;;;;;;;10.60;9.80;;;14.70;99.90;;;;;;10422289;28;20194;-80
2023/04/21 12:29:43;;;;;;;9.20;8.20;;;14.80;99.90;;;;;;10421301;28;20282;-80
2023/04/21 12:34:46;;;;;;;11.87;10.87;;;14.80;99.90;;;;;;10400706;28;20313;-80
2023/04/21 12:39:48;;;;;;;9.40;8.70;;;14.90;99.90;;;;;;10423040;28;20198;-80
2023/04/21 12:44:55;;;;;;;7.93;7.33;;;14.90;99.90;;;;;;10421908;28;20238;-80
2023/04/21 12:49:59;;;;;;;11.20;10.20;;;15.00;99.90;;;;;;10405622;28;20681;-80
2023/04/21 12:55:01;;;;;;;9.80;9.00;;;15.00;99.90;;;;;;10422621;28;20223;-80
2023/04/21 13:00:04;;;;;;;7.97;7.40;;;14.90;99.90;;;;;;10426776;28;20255;-80
2023/04/21 13:05:10;;;;;;;8.50;7.80;;;14.90;99.90;;;;;;10410023;28;20210;-80
2023/04/21 13:10:12;;;;;;;8.23;7.53;;;14.90;99.90;;;;;;10419311;28;20670;-80
2023/04/21 13:15:15;;;;;;;7.67;7.07;;;14.90;99.90;;;;;;10403534;28;20705;-80
2023/04/21 13:20:19;;;;;;;8.70;8.00;;;15.00;99.90;;;;;;10403078;28;20191;-80
2023/04/21 13:25:21;;;;;;;8.03;7.43;;;15.00;99.90;;;;;;10425753;28;20210;-80
2023/04/21 13:30:23;;;;;;;7.80;7.20;;;15.00;99.90;;;;;;10427961;28;20633;-80
2023/04/21 13:35:26;;;;;;;7.70;7.10;;;15.10;99.90;;;;;;10402108;28;20341;-80
2023/04/21 13:40:29;;;;;;;6.83;6.33;;;15.10;99.90;;;;;;10406077;28;20202;-82
2023/04/21 13:45:31;;;;;;;7.07;6.60;;;15.20;99.90;;;;;;10405874;28;20213;-80
2023/04/21 13:50:34;;;;;;;7.07;6.50;;;15.30;99.90;;;;;;10425084;28;20201;-80
2023/04/21 13:55:36;;;;;;;6.70;6.20;;;15.40;99.90;;;;;;10434390;28;20750;-80
2023/04/21 14:00:38;;;;;;;6.80;6.30;;;15.50;99.90;;;;;;10410271;28;20237;-82
2023/04/21 14:05:42;;;;;;;6.00;5.57;;;15.50;99.90;;;;;;10419380;28;20305;-81
2023/04/21 14:10:44;;;;;;;6.33;5.90;;;15.50;99.90;;;;;;10421373;28;20212;-82
2023/04/21 14:15:46;;;;;;;6.63;6.13;;;15.50;99.90;;;;;;10401769;28;20254;-81
2023/04/21 14:20:50;;;;;;;8.07;7.47;;;15.60;99.90;;;;;;10401020;28;20667;-82
2023/04/21 14:25:52;;;;;;;6.30;5.80;;;15.60;99.90;;;;;;10419145;28;20754;-82
2023/04/21 14:30:54;;;;;;;6.97;6.37;;;15.80;99.90;;;;;;10403024;28;20249;-83
2023/04/21 14:35:58;;;;;;;5.77;5.37;;;15.80;99.90;;;;;;10400271;28;20229;-83
2023/04/21 14:41:00;;;;;;;5.10;4.70;;;16.00;99.90;;;;;;10420784;28;20244;-82
2023/04/21 14:46:03;;;;;;;3.80;3.60;;;16.30;99.10;;;;;;10403575;28;20664;-81
2023/04/21 14:51:08;;;;;;;3.90;3.70;;;16.50;95.60;;;;;;10423286;28;20257;-82
2023/04/21 14:56:10;;;;;;;3.67;3.47;;;16.60;96.10;;;;;;10426402;28;20290;-81
2023/04/21 15:01:12;;;;;;;6.60;6.10;;;16.90;95.50;;;;;;10416061;28;20199;-82
2023/04/21 15:06:16;;;;;;;4.40;4.00;;;17.00;94.80;;;;;;10404004;28;20238;-82
2023/04/21 15:11:18;;;;;;;5.53;5.20;;;17.00;96.10;;;;;;10421678;28;20290;-82
2023/04/21 15:16:20;;;;;;;3.77;3.57;;;17.00;95.90;;;;;;10419420;28;20227;-83
2023/04/21 15:21:26;;;;;;;3.97;3.73;;;17.10;96.40;;;;;;10416776;28;20202;-80
2023/04/21 15:26:29;;;;;;;4.37;4.07;;;17.00;96.50;;;;;;10418966;28;20658;-80
2023/04/21 15:31:31;;;;;;;4.03;3.73;;;16.90;97.70;;;;;;10421617;28;20195;-81
2023/04/21 15:36:34;;;;;;;3.57;3.37;;;16.80;97.50;;;;;;10404857;28;20219;-81
2023/04/21 15:41:36;;;;;;;4.73;4.43;;;16.90;98.10;;;;;;10406682;28;20569;-81
2023/04/21 15:46:38;;;;;;;4.30;4.00;;;17.00;97.30;;;;;;10406725;28;20240;-81
2023/04/21 15:51:42;;;;;;;4.50;4.10;;;17.00;97.10;;;;;;10425588;28;20233;-81
2023/04/21 15:56:44;;;;;;;4.80;4.20;;;17.10;96.90;;;;;;10425897;28;20238;-81
2023/04/21 16:01:46;;;;;;;4.53;4.10;;;17.00;97.40;;;;;;10427274;28;20190;-81
2023/04/21 16:06:50;;;;;;;4.13;3.83;;;17.10;97.10;;;;;;10430077;28;20761;-81
2023/04/21 16:11:52;;;;;;;4.00;3.80;;;17.10;97.70;;;;;;10424146;28;20195;-81
2023/04/21 16:16:54;;;;;;;5.20;4.80;;;17.10;97.80;;;;;;10389137;28;20226;-81
2023/04/21 16:21:58;;;;;;;4.20;4.00;;;17.10;97.30;;;;;;10424697;28;20248;-81
2023/04/21 16:27:01;;;;;;;4.73;4.40;;;17.00;98.00;;;;;;10410277;28;20225;-81
2023/04/21 16:32:03;;;;;;;4.50;4.20;;;17.20;97.10;;;;;;10431306;28;20230;-81
2023/04/21 16:37:07;;;;;;;4.47;4.17;;;17.20;97.40;;;;;;10421263;28;20562;-81
2023/04/21 16:42:09;;;;;;;3.97;3.77;;;17.00;98.20;;;;;;10402914;28;20206;-81
2023/04/21 16:47:11;;;;;;;4.67;4.20;;;17.00;98.20;;;;;;10420554;28;20224;-81
2023/04/21 16:52:15;;;;;;;4.30;4.00;;;17.20;97.60;;;;;;10420639;28;20272;-81
2023/04/21 16:57:17;;;;;;;4.37;3.97;;;17.20;98.00;;;;;;10401697;28;20214;-81
2023/04/21 17:02:19;;;;;;;4.23;3.93;;;17.20;98.40;;;;;;10419423;28;20305;-83
2023/04/21 17:07:23;;;;;;;4.50;4.20;;;17.10;98.20;;;;;;10403726;28;20218;-81
2023/04/21 17:12:26;;;;;;;4.90;4.60;;;16.90;99.20;;;;;;10419358;28;20214;-81
2023/04/21 17:17:37;;;;;;;4.90;4.57;;;16.70;99.00;;;;;;10417183;28;20603;-82
2023/04/21 17:22:41;;;;;;;6.77;4.90;;;16.40;99.90;;;;;;10380596;28;20191;-81
2023/04/21 17:27:45;;;;;;;8.40;7.60;;;16.20;99.90;;;;;;10400978;28;20245;-80
2023/04/21 17:32:47;;;;;;;8.90;8.30;;;16.10;99.90;;;;;;10384887;28;20628;-80
2023/04/21 17:37:50;;;;;;;7.37;6.97;;;15.70;99.90;;;;;;10419481;28;20710;-80
2023/04/21 17:42:52;;;;;;;7.27;6.77;;;15.40;99.90;;;;;;10421477;28;20282;-82
2023/04/21 17:47:54;;;;;;;8.43;7.00;;;15.20;99.90;;;;;;10407273;28;20256;-81
2023/04/21 17:52:58;;;;;;;11.23;10.37;;;15.00;99.90;;;;;;10405699;28;20396;-80
2023/04/21 17:58:00;;;;;;;9.40;8.70;;;14.90;99.90;;;;;;10403456;28;20286;-81
2023/04/21 18:03:02;;;;;;;17.87;14.67;;;14.80;99.90;;;;;;10423162;28;20226;-81
2023/04/21 18:08:06;;;;;;;9.53;8.63;;;14.80;99.90;;;;;;10417942;28;20223;-80
2023/04/21 18:13:09;;;;;;;15.23;13.57;;;14.70;99.90;;;;;;10419482;28;20221;-82
2023/04/21 18:18:11;;;;;;;11.03;10.03;;;14.70;99.90;;;;;;10401661;28;20241;-81
2023/04/21 18:23:14;;;;;;;5.13;4.80;;;14.60;99.90;;;;;;10392192;28;20564;-81
2023/04/21 18:28:16;;;;;;;8.63;7.83;;;14.70;99.90;;;;;;10410130;28;20214;-81
2023/04/21 18:33:18;;;;;;;11.37;10.27;;;14.60;99.90;;;;;;10412698;28;20215;-81
2023/04/21 18:38:22;;;;;;;7.53;6.90;;;14.50;99.90;;;;;;10399900;28;20637;-82
2023/04/21 18:43:24;;;;;;;6.33;5.90;;;14.40;99.90;;;;;;10379821;28;21161;-80
2023/04/21 18:48:26;;;;;;;9.73;8.93;;;14.40;99.90;;;;;;10416959;28;20241;-82
2023/04/21 18:53:30;;;;;;;7.70;7.10;;;14.20;99.90;;;;;;10398500;28;20245;-81
2023/04/21 18:58:32;;;;;;;11.20;10.10;;;14.10;99.90;;;;;;10419291;28;20671;-82
2023/04/21 19:03:34;;;;;;;9.03;8.10;;;14.00;99.90;;;;;;10444865;28;20190;-82
2023/04/21 19:08:37;;;;;;;7.30;5.30;;;14.00;99.90;;;;;;10447172;28;20226;-80
2023/04/21 19:13:42;;;;;;;5.50;5.10;;;13.90;99.90;;;;;;10453272;28;20215;-81
2023/04/21 19:18:46;;;;;;;6.10;5.57;;;13.90;99.90;;;;;;10426135;28;20223;-82
2023/04/21 19:23:49;;;;;;;5.37;4.97;;;13.90;99.90;;;;;;10424772;28;20182;-81
2023/04/21 19:28:51;;;;;;;5.20;4.90;;;13.90;99.90;;;;;;10428372;28;20210;-80
2023/04/21 19:33:53;;;;;;;4.43;3.53;;;13.80;99.90;;;;;;10432000;28;20210;-81
2023/04/21 19:38:57;;;;;;;3.80;3.60;;;13.80;99.90;;;;;;10462680;28;20264;-80
2023/04/21 19:43:59;;;;;;;4.80;4.50;;;13.80;99.90;;;;;;10458983;28;20279;-82
2023/04/21 19:49:01;;;;;;;5.03;4.73;;;13.80;99.90;;;;;;10455587;28;20227;-82
2023/04/21 19:54:05;;;;;;;3.93;3.53;;;13.70;99.90;;;;;;10422362;28;20234;-81
2023/04/21 19:59:07;;;;;;;3.83;3.63;;;13.70;99.90;;;;;;10419300;28;20253;-81
2023/04/21 20:04:09;;;;;;;3.00;2.80;;;13.80;99.90;;;;;;10419909;28;20283;-82
2023/04/21 20:09:13;;;;;;;7.77;6.50;;;13.80;99.90;;;;;;10422609;28;20246;-82
2023/04/21 20:14:15;;;;;;;4.27;3.97;;;13.80;99.90;;;;;;10420460;28;20264;-81
2023/04/21 20:19:21;;;;;;;4.23;3.87;;;13.80;99.90;;;;;;10406597;28;20230;-82
2023/04/21 20:24:25;;;;;;;4.60;4.20;;;13.80;99.90;;;;;;10419943;28;20241;-81
2023/04/21 20:29:27;;;;;;;3.53;3.33;;;13.70;99.90;;;;;;10404044;28;20616;-81
2023/04/21 20:34:29;;;;;;;3.47;3.17;;;13.80;99.90;;;;;;10420234;28;20222;-79
2023/04/21 20:39:32;;;;;;;3.60;3.30;;;13.80;99.90;;;;;;10410776;28;20738;-80
2023/04/21 20:44:36;;;;;;;4.20;3.90;;;13.70;99.90;;;;;;10413177;28;20194;-81
2023/04/21 20:49:38;;;;;;;4.60;4.30;;;13.70;99.90;;;;;;10397089;28;20225;-79
2023/04/21 20:54:42;;;;;;;4.73;4.30;;;13.70;99.90;;;;;;10433204;28;21355;-82
2023/04/21 20:59:44;;;;;;;3.70;3.40;;;13.70;99.90;;;;;;10420398;28;20634;-82
2023/04/21 21:04:46;;;;;;;8.90;3.60;;;13.70;99.90;;;;;;10419738;28;20218;-80
2023/04/21 21:09:50;;;;;;;3.47;3.27;;;13.70;99.90;;;;;;10421485;28;20225;-81
2023/04/21 21:14:52;;;;;;;3.23;2.93;;;13.70;99.90;;;;;;10425984;28;21616;-79
2023/04/21 21:19:55;;;;;;;3.70;3.40;;;13.70;99.90;;;;;;10404196;28;20568;-79
2023/04/21 21:24:58;;;;;;;3.47;3.17;;;13.70;99.90;;;;;;10415326;28;20628;-82
2023/04/21 21:30:02;;;;;;;3.37;3.07;;;13.70;99.90;;;;;;10423577;28;20195;-80
2023/04/21 21:35:06;;;;;;;3.47;3.17;;;13.70;99.90;;;;;;10428115;28;20230;-81
2023/04/21 21:40:10;;;;;;;3.80;3.50;;;13.70;99.90;;;;;;10433695;28;20199;-80
2023/04/21 21:45:42;;;;;;;3.70;3.50;;;13.70;99.90;;;;;;10393651;28;20229;-79
2023/04/21 21:50:48;;;;;;;3.87;3.47;;;13.60;99.90;;;;;;10408845;28;20244;-81
2023/04/21 21:55:53;;;;;;;4.47;4.07;;;13.70;99.90;;;;;;10399693;28;20280;-80
2023/04/21 22:00:58;;;;;;;3.37;3.17;;;13.70;99.90;;;;;;10416317;28;20206;-82
2023/04/21 22:06:00;;;;;;;2.60;2.50;;;13.70;99.90;;;;;;10417737;28;20580;-80
2023/04/21 22:11:04;;;;;;;3.27;3.07;;;13.70;99.90;;;;;;10413332;28;20655;-81
2023/04/21 22:16:07;;;;;;;3.57;3.27;;;13.70;99.90;;;;;;10424581;28;20230;-82
2023/04/21 22:21:09;;;;;;;2.93;2.70;;;13.70;99.90;;;;;;10421942;28;20203;-82
2023/04/21 22:26:12;;;;;;;5.77;4.63;;;13.70;99.90;;;;;;10413800;28;20332;-81
2023/04/21 22:31:14;;;;;;;3.33;3.10;;;13.70;99.90;;;;;;10410689;28;20202;-82
2023/04/21 22:36:17;;;;;;;3.30;3.10;;;13.60;99.90;;;;;;10426115;28;20249;-82
2023/04/21 22:41:24;;;;;;;3.23;3.03;;;13.60;99.90;;;;;;10419401;28;20221;-81
2023/04/21 22:46:30;;;;;;;2.67;2.57;;;13.60;99.90;;;;;;10427575;28;20210;-79
2023/04/21 22:51:33;;;;;;;2.70;2.50;;;13.60;99.90;;;;;;10441504;28;20222;-81
2023/04/21 22:56:36;;;;;;;3.20;3.00;;;13.60;99.90;;;;;;10412247;28;20239;-82
2023/04/21 23:01:38;;;;;;;4.17;3.77;;;13.50;99.90;;;;;;10412123;28;20639;-82
2023/04/21 23:06:40;;;;;;;4.83;4.43;;;13.50;99.90;;;;;;10425405;28;20238;-81
2023/04/21 23:11:44;;;;;;;2.83;2.63;;;13.50;99.90;;;;;;10423634;28;20257;-80
2023/04/21 23:16:46;;;;;;;3.13;2.87;;;13.50;99.90;;;;;;10404540;28;20222;-80
2023/04/21 23:21:48;;;;;;;4.10;3.80;;;13.40;99.90;;;;;;10406446;28;20619;-81
2023/04/21 23:26:51;;;;;;;5.20;4.63;;;13.40;99.90;;;;;;10390266;28;20237;-81
2023/04/21 23:31:53;;;;;;;3.10;2.90;;;13.40;99.90;;;;;;10408553;28;20201;-82
2023/04/21 23:36:55;;;;;;;3.87;3.47;;;13.40;99.90;;;;;;10406522;28;20229;-83
2023/04/21 23:42:01;;;;;;;3.43;3.10;;;13.40;99.90;;;;;;10406524;28;20655;-82
2023/04/21 23:47:03;;;;;;;3.60;3.30;;;13.30;99.90;;;;;;10388418;28;20290;-81
2023/04/21 23:52:05;;;;;;;4.97;2.87;;;13.30;99.90;;;;;;10408595;28;20195;-82
2023/04/21 23:57:09;;;;;;;3.37;3.07;;;13.30;99.90;;;;;;10431078;28;20222;-81
